Alton, Texas
Current Conditions -  °F | °C
As of 2:53 PM on Thursday 18 Dec 2014 (Local Time) from KMFE Reporting Station
Haze Haze  
Wind Chill: 19°   Ceiling: 5000
Heat Index: 19°   Visibility: 4mi
Dew Point: 16°   Wind: 6mph
Humidity: 79%   Direction: 300°WNW
Pressure: 29.97"   Gusts: NA
Location:  26.2155°N, 98.325°W
Report Text: KMFE 182053Z 30005KT 4SM HZ FEW029 BKN050 OVC065 19/16 A2997 RMK AO2 SLP148 T01940156 56025
Loading
Personal Weather Stations






























Interactive Weather Map New forecast layout! Learn more

10-Day Weather Forecast

Advertisements
Track Severe Weather on mobile